Time;durP1;ratioP1;P1;durP2;ratioP2;P2;SDS_P1;SDS_P2;PMS_P1;PMS_P2;Temp;Humidity;BMP_temperature;BMP_pressure;BME280_temperature;BME280_humidity;BME280_pressure;Samples;Min_cycle;Max_cycle;Signal;HPM_P1;HPM_P2
2021/11/22 00:02:06;;;;;;;13.83;9.60;;;;;;;6.23;79.10;95240.53;5000264;28;20395;-84
2021/11/22 00:04:32;;;;;;;12.90;9.40;;;;;;;6.26;78.88;95239.44;5000098;28;20203;-84
2021/11/22 00:06:59;;;;;;;13.17;9.13;;;;;;;6.21;78.67;95232.22;4999568;28;20231;-84
2021/11/22 00:09:26;;;;;;;14.53;9.67;;;;;;;6.19;79.03;95222.16;5001278;28;20200;-84
2021/11/22 00:11:53;;;;;;;15.40;9.50;;;;;;;6.20;79.57;95216.09;4999842;28;20195;-84
2021/11/22 00:14:21;;;;;;;14.07;8.90;;;;;;;6.23;79.38;95220.88;5000030;28;20234;-84
2021/11/22 00:16:47;;;;;;;13.53;9.80;;;;;;;6.24;79.42;95221.69;4999821;28;20211;-84
2021/11/22 00:19:14;;;;;;;14.33;10.20;;;;;;;6.21;79.83;95230.47;5000374;28;20211;-84
2021/11/22 00:21:40;;;;;;;13.70;9.10;;;;;;;6.16;79.60;95234.44;4998885;28;20231;-84
2021/11/22 00:24:07;;;;;;;13.37;9.30;;;;;;;6.20;79.52;95238.28;4999684;28;20196;-84
2021/11/22 00:26:34;;;;;;;14.40;10.03;;;;;;;6.08;80.22;95242.91;4999608;28;20235;-85
2021/11/22 00:29:01;;;;;;;12.93;9.10;;;;;;;6.13;79.83;95240.69;4999768;28;20215;-85
2021/11/22 00:31:29;;;;;;;13.10;9.57;;;;;;;6.17;79.74;95234.28;4999779;28;20203;-85
2021/11/22 00:33:56;;;;;;;12.67;9.40;;;;;;;6.13;79.72;95245.00;4999289;28;20195;-85
2021/11/22 00:36:23;;;;;;;12.97;9.60;;;;;;;6.02;80.43;95240.97;4999084;28;20207;-84
2021/11/22 00:38:49;;;;;;;12.87;9.80;;;;;;;6.00;80.50;95244.66;4998278;28;20654;-85
2021/11/22 00:41:16;;;;;;;12.70;9.93;;;;;;;6.07;80.41;95245.63;4999880;28;20710;-85
2021/11/22 00:43:44;;;;;;;12.43;9.57;;;;;;;6.07;80.56;95237.97;4999578;28;20199;-84
2021/11/22 00:46:10;;;;;;;13.80;9.63;;;;;;;6.16;79.97;95239.56;4998451;28;20214;-85
2021/11/22 00:48:37;;;;;;;14.50;10.10;;;;;;;6.11;80.26;95246.94;4998863;28;20219;-84
2021/11/22 00:51:04;;;;;;;12.40;9.43;;;;;;;6.14;80.10;95249.97;4998665;28;20206;-83
2021/11/22 00:53:30;;;;;;;13.47;9.90;;;;;;;6.13;79.80;95261.16;4998455;28;20199;-84
2021/11/22 00:55:57;;;;;;;13.47;9.23;;;;;;;6.13;80.45;95261.16;4998304;28;20575;-85
2021/11/22 00:58:24;;;;;;;13.07;9.70;;;;;;;6.14;80.49;95260.19;4998242;28;20647;-85
2021/11/22 01:00:53;;;;;;;13.40;9.50;;;;;;;6.21;80.28;95256.03;4998958;28;20662;-85
2021/11/22 01:03:20;;;;;;;14.07;9.60;;;;;;;6.28;79.91;95256.22;4999099;28;20196;-85
2021/11/22 01:05:46;;;;;;;14.77;10.30;;;;;;;6.32;79.45;95264.38;4999805;28;20199;-85
2021/11/22 01:08:12;;;;;;;14.63;10.03;;;;;;;6.35;79.12;95264.81;4998225;28;20216;-85
2021/11/22 01:10:39;;;;;;;12.90;9.07;;;;;;;6.30;79.27;95264.53;4997951;28;20225;-84
2021/11/22 01:13:07;;;;;;;12.67;9.23;;;;;;;6.33;79.29;95261.66;4998238;28;20204;-84
2021/11/22 01:15:33;;;;;;;13.43;9.60;;;;;;;6.35;78.94;95266.63;4998285;28;20192;-85
2021/11/22 01:18:02;;;;;;;11.23;9.10;;;;;;;6.41;79.11;95261.66;4999338;28;20250;-84
2021/11/22 01:20:30;;;;;;;11.20;9.17;;;;;;;6.44;78.61;95266.44;4997737;28;20243;-85
2021/11/22 01:22:58;;;;;;;12.80;8.73;;;;;;;6.50;78.38;95263.28;4998138;28;20231;-85
2021/11/22 01:25:25;;;;;;;10.87;8.20;;;;;;;6.44;78.63;95269.00;4998462;28;20685;-85
2021/11/22 01:27:52;;;;;;;11.03;8.63;;;;;;;6.29;79.44;95280.81;4999346;28;20283;-85
2021/11/22 01:30:20;;;;;;;12.50;8.40;;;;;;;6.29;79.18;95275.72;4999176;28;20214;-85
2021/11/22 01:32:47;;;;;;;11.50;9.07;;;;;;;6.34;79.59;95270.94;4999035;28;20203;-85
2021/11/22 01:35:16;;;;;;;11.47;8.87;;;;;;;6.42;79.38;95277.78;4998283;28;20230;-85
2021/11/22 01:37:44;;;;;;;11.77;9.50;;;;;;;6.44;79.37;95276.69;4999096;28;20777;-85
2021/11/22 01:40:13;;;;;;;13.23;9.73;;;;;;;6.50;79.12;95277.81;4997889;28;20206;-85
2021/11/22 01:42:41;;;;;;;14.03;9.90;;;;;;;6.46;79.00;95269.66;4998975;28;20223;-85
2021/11/22 01:45:09;;;;;;;11.37;8.73;;;;;;;6.50;79.05;95277.81;4998575;28;20199;-85
2021/11/22 01:47:36;;;;;;;12.13;9.40;;;;;;;6.45;79.08;95277.47;4998425;28;20861;-85
2021/11/22 01:50:03;;;;;;;11.10;8.73;;;;;;;6.44;79.62;95283.56;4998751;28;20203;-85
2021/11/22 01:52:30;;;;;;;10.37;8.03;;;;;;;6.47;79.39;95276.38;4997983;28;20199;-85
2021/11/22 01:54:57;;;;;;;10.97;8.07;;;;;;;6.47;79.44;95273.00;4997997;28;20215;-85
2021/11/22 01:57:23;;;;;;;11.93;9.27;;;;;;;6.42;80.01;95276.03;4997885;28;20277;-84
2021/11/22 01:59:50;;;;;;;13.63;10.03;;;;;;;6.45;79.93;95275.72;4998804;28;20202;-84
2021/11/22 02:02:17;;;;;;;12.30;9.57;;;;;;;6.37;80.91;95285.13;4998459;28;20266;-85
2021/11/22 02:04:43;;;;;;;13.37;9.60;;;;;;;6.21;81.73;95286.72;4997065;28;20636;-85
2021/11/22 02:07:10;;;;;;;12.97;9.83;;;;;;;5.95;83.81;95290.34;4996287;28;20215;-85
2021/11/22 02:09:38;;;;;;;13.13;10.60;;;;;;;6.02;83.44;95289.53;4999008;28;20203;-85
2021/11/22 02:12:05;;;;;;;12.37;9.87;;;;;;;6.14;83.25;95298.53;4999504;28;20195;-84
2021/11/22 02:14:31;;;;;;;12.13;9.67;;;;;;;6.20;83.38;95294.53;5000574;28;20199;-85
2021/11/22 02:16:58;;;;;;;12.80;10.00;;;;;;;6.14;83.20;95301.09;5000603;28;20195;-85
2021/11/22 02:19:24;;;;;;;11.73;9.87;;;;;;;6.24;82.68;95300.94;5001109;28;20191;-85
2021/11/22 02:21:52;;;;;;;14.07;10.63;;;;;;;6.30;83.03;95302.88;5000075;28;20231;-85
2021/11/22 02:24:19;;;;;;;12.67;9.93;;;;;;;6.33;82.22;95301.75;5000500;28;20223;-85
2021/11/22 02:26:45;;;;;;;14.07;11.00;;;;;;;6.34;81.97;95300.81;5000251;28;20253;-85
2021/11/22 02:29:12;;;;;;;14.20;10.57;;;;;;;6.36;82.51;95303.97;4999844;28;20199;-85
2021/11/22 02:31:40;;;;;;;13.50;11.03;;;;;;;6.44;81.53;95301.44;4999957;28;20254;-85
2021/11/22 02:34:07;;;;;;;13.63;9.83;;;;;;;6.34;82.07;95309.28;4999974;28;20195;-85
2021/11/22 02:36:34;;;;;;;13.13;9.93;;;;;;;6.32;81.34;95308.63;4999456;28;20200;-85
2021/11/22 02:39:02;;;;;;;11.67;10.13;;;;;;;6.28;81.90;95304.78;4999418;28;20273;-85
2021/11/22 02:41:30;;;;;;;14.57;10.80;;;;;;;6.38;81.09;95304.63;4999109;28;20727;-85
2021/11/22 02:43:57;;;;;;;13.80;10.37;;;;;;;6.43;80.84;95305.75;4993767;28;20199;-85
2021/11/22 02:46:24;;;;;;;13.27;10.77;;;;;;;6.45;81.04;95315.84;4993591;28;20342;-84
2021/11/22 02:48:50;;;;;;;14.53;11.03;;;;;;;6.39;81.18;95317.25;4992841;28;20219;-84
2021/11/22 02:51:16;;;;;;;14.40;10.77;;;;;;;6.36;81.62;95315.00;4994360;28;20206;-85
2021/11/22 02:53:43;;;;;;;13.57;10.80;;;;;;;6.31;81.75;95314.69;4993886;28;20196;-85
2021/11/22 02:56:11;;;;;;;15.07;11.70;;;;;;;6.25;82.07;95317.88;4992766;28;20200;-85
2021/11/22 02:58:40;;;;;;;13.67;10.83;;;;;;;6.25;82.43;95317.88;4992821;28;20303;-84
2021/11/22 03:01:09;;;;;;;13.60;11.23;;;;;;;6.22;82.46;95313.88;4993576;28;20207;-85
2021/11/22 03:03:36;;;;;;;16.27;11.80;;;;;;;6.25;82.18;95312.75;4992411;28;20234;-85
2021/11/22 03:06:05;;;;;;;14.83;10.93;;;;;;;6.22;82.68;95315.63;4993561;28;20210;-85
2021/11/22 03:08:32;;;;;;;13.67;11.00;;;;;;;6.33;82.34;95312.78;4993190;28;20219;-84
2021/11/22 03:10:58;;;;;;;16.40;12.53;;;;;;;6.32;82.58;95312.94;4993331;28;20204;-85
2021/11/22 03:13:26;;;;;;;13.97;11.10;;;;;;;6.27;82.36;95315.97;4993071;28;20195;-85
2021/11/22 03:15:53;;;;;;;13.80;11.40;;;;;;;6.26;82.73;95322.03;4992420;28;20198;-85
2021/11/22 03:18:19;;;;;;;14.30;10.97;;;;;;;6.23;83.18;95318.03;4993070;28;20235;-85
2021/11/22 03:20:46;;;;;;;13.47;11.40;;;;;;;6.16;83.97;95327.25;4993374;28;20199;-85
2021/11/22 03:23:13;;;;;;;13.20;10.97;;;;;;;6.18;83.96;95332.22;4992636;28;20862;-85
2021/11/22 03:25:39;;;;;;;13.27;11.03;;;;;;;6.25;83.43;95338.31;4992716;28;20209;-85
2021/11/22 03:28:06;;;;;;;13.80;10.90;;;;;;;6.26;83.31;95328.91;4992088;28;20596;-85
2021/11/22 03:30:34;;;;;;;13.80;11.00;;;;;;;6.22;83.72;95331.75;4992850;28;20204;-85
2021/11/22 03:33:00;;;;;;;14.83;11.63;;;;;;;6.07;85.42;95332.53;4993287;28;20212;-85
2021/11/22 03:35:27;;;;;;;14.83;11.33;;;;;;;6.10;84.71;95332.22;4993694;28;20207;-84
2021/11/22 03:37:53;;;;;;;15.93;12.03;;;;;;;6.17;84.58;95333.97;4992873;28;20846;-84
2021/11/22 03:40:20;;;;;;;15.23;11.60;;;;;;;6.21;83.97;95339.59;4993221;28;20266;-84
2021/11/22 03:42:59;;;;;;;15.30;11.70;;;;;;;6.13;84.73;95337.03;4992562;28;20220;-84
2021/11/22 03:45:26;;;;;;;17.73;12.13;;;;;;;6.04;85.50;95332.81;4992848;28;20195;-84
2021/11/22 03:47:53;;;;;;;16.50;12.33;;;;;;;5.98;85.82;95341.09;4992263;28;20270;-85
2021/11/22 03:50:20;;;;;;;16.20;12.70;;;;;;;5.99;85.95;95340.94;4992457;28;20200;-84
2021/11/22 03:52:46;;;;;;;16.50;12.33;;;;;;;5.94;86.31;95345.75;4992935;28;20610;-85
2021/11/22 03:55:13;;;;;;;18.57;12.93;;;;;;;5.99;85.89;95345.25;4992056;28;20257;-85
2021/11/22 03:57:39;;;;;;;15.73;12.03;;;;;;;6.06;85.20;95338.59;4991176;28;20637;-85
2021/11/22 04:00:07;;;;;;;16.57;12.63;;;;;;;6.06;85.13;95346.25;4992659;28;20212;-84
2021/11/22 04:02:34;;;;;;;16.90;12.63;;;;;;;6.14;84.26;95348.84;4992263;28;20271;-85
2021/11/22 04:05:02;;;;;;;16.00;12.37;;;;;;;6.13;84.66;95353.16;4992730;28;20262;-85
2021/11/22 04:07:28;;;;;;;15.33;12.40;;;;;;;6.03;84.88;95356.78;4992250;28;20222;-85
2021/11/22 04:09:55;;;;;;;16.90;12.73;;;;;;;5.95;85.88;95361.88;4993293;28;20584;-85
2021/11/22 04:12:22;;;;;;;18.50;13.40;;;;;;;5.95;85.23;95355.00;4993123;28;20302;-84
2021/11/22 04:14:48;;;;;;;17.77;12.97;;;;;;;5.94;85.82;95371.28;4992632;28;20206;-85
2021/11/22 04:17:15;;;;;;;17.60;13.57;;;;;;;5.97;85.75;95367.59;4992104;28;20223;-84
2021/11/22 04:19:41;;;;;;;15.80;12.77;;;;;;;5.87;86.16;95368.50;4992140;28;20202;-85
2021/11/22 04:22:09;;;;;;;17.83;13.00;;;;;;;5.88;85.84;95369.31;4991846;28;20321;-85
2021/11/22 04:24:35;;;;;;;16.30;12.57;;;;;;;5.91;85.82;95368.22;4992178;28;20666;-85
2021/11/22 04:27:02;;;;;;;14.63;12.33;;;;;;;6.03;85.20;95377.22;4992162;28;20204;-85
2021/11/22 04:29:29;;;;;;;14.47;11.70;;;;;;;6.15;84.64;95386.22;4992411;28;20609;-85
2021/11/22 04:31:56;;;;;;;16.30;12.90;;;;;;;6.24;84.15;95383.53;4991978;28;20202;-84
2021/11/22 04:34:22;;;;;;;16.60;12.90;;;;;;;6.22;84.20;95382.09;4991903;28;20250;-85
2021/11/22 04:36:49;;;;;;;20.83;12.50;;;;;;;6.18;84.23;95384.16;4991228;28;20195;-85
2021/11/22 04:39:16;;;;;;;17.77;13.40;;;;;;;6.17;84.45;95395.31;4991506;28;20214;-85
2021/11/22 04:41:43;;;;;;;15.47;12.40;;;;;;;6.20;84.65;95400.13;4991063;28;20282;-85
2021/11/22 04:44:10;;;;;;;16.63;11.97;;;;;;;6.13;84.76;95403.47;4991474;28;20246;-85
2021/11/22 04:46:37;;;;;;;16.97;12.17;;;;;;;6.12;85.05;95412.09;4991569;28;20200;-85
2021/11/22 04:49:03;;;;;;;16.90;12.70;;;;;;;6.05;85.69;95406.78;4991579;28;20243;-84
2021/11/22 04:51:30;;;;;;;16.33;12.63;;;;;;;5.95;86.20;95411.22;4991214;28;20211;-85
2021/11/22 04:53:57;;;;;;;19.43;12.30;;;;;;;5.99;85.86;95404.84;4990622;28;20885;-85
2021/11/22 04:56:24;;;;;;;17.30;12.70;;;;;;;6.08;85.69;95416.72;4991088;28;20207;-84
2021/11/22 04:58:51;;;;;;;14.20;11.93;;;;;;;6.19;85.03;95407.94;4991397;28;20677;-85
2021/11/22 05:01:17;;;;;;;15.60;12.53;;;;;;;6.24;84.12;95411.66;4992187;28;20203;-84
2021/11/22 05:03:46;;;;;;;14.20;11.80;;;;;;;6.29;83.89;95416.31;4996818;28;20233;-84
2021/11/22 05:06:12;;;;;;;13.80;11.10;;;;;;;6.36;83.64;95411.38;4996847;28;20207;-84
2021/11/22 05:08:38;;;;;;;15.40;11.43;;;;;;;6.29;83.68;95418.88;4996162;28;20219;-84
2021/11/22 05:11:05;;;;;;;13.73;10.43;;;;;;;6.30;83.73;95420.47;4995705;28;20203;-84
2021/11/22 05:13:33;;;;;;;13.97;11.07;;;;;;;6.42;90.25;95415.88;4979799;28;20199;-84
2021/11/22 05:15:59;;;;;;;13.03;10.23;;;;;;;6.42;84.32;95410.75;4996637;28;20206;-84
2021/11/22 05:18:25;;;;;;;15.57;11.03;;;;;;;6.38;84.10;95427.34;4997651;28;20223;-85
2021/11/22 05:20:52;;;;;;;15.33;10.73;;;;;;;6.42;83.75;95416.69;4996392;28;20192;-84
2021/11/22 05:23:18;;;;;;;13.83;10.97;;;;;;;6.45;83.65;95423.25;4996320;28;20231;-84
2021/11/22 05:25:45;;;;;;;15.80;11.23;;;;;;;6.43;83.43;95415.72;4996727;28;20203;-84
2021/11/22 05:28:12;;;;;;;13.60;10.87;;;;;;;6.45;83.25;95418.13;4996943;28;20238;-84
2021/11/22 05:30:40;;;;;;;14.50;11.30;;;;;;;6.45;83.36;95421.47;4996870;28;20203;-84
2021/11/22 05:33:06;;;;;;;15.43;11.67;;;;;;;6.45;83.14;95424.03;4996373;28;20602;-84
2021/11/22 05:35:35;;;;;;;14.83;11.53;;;;;;;6.45;83.61;95428.34;4995603;28;20225;-84
2021/11/22 05:38:02;;;;;;;14.57;10.40;;;;;;;6.44;83.59;95427.56;4996284;28;20227;-84
2021/11/22 05:40:28;;;;;;;12.97;10.77;;;;;;;6.47;83.30;95427.25;4997299;28;20697;-84
2021/11/22 05:42:55;;;;;;;15.43;10.80;;;;;;;6.44;83.60;95430.09;4996956;28;20230;-84
2021/11/22 05:45:22;;;;;;;14.17;11.27;;;;;;;6.47;83.92;95432.38;4995171;28;20610;-84
2021/11/22 05:47:50;;;;;;;13.90;10.47;;;;;;;6.47;83.76;95442.59;4997861;28;20223;-84
2021/11/22 05:50:18;;;;;;;13.50;10.77;;;;;;;6.49;83.77;95435.56;4997588;28;20218;-84
2021/11/22 05:52:49;;;;;;;14.83;11.20;;;;;;;6.48;83.85;95433.97;4999763;28;20203;-84
2021/11/22 05:55:23;;;;;;;15.50;11.83;;;;;;;6.49;83.75;95440.69;5000365;28;20230;-84
2021/11/22 05:57:49;;;;;;;15.73;10.83;;;;;;;6.44;83.89;95447.22;4998230;28;20594;-84
2021/11/22 06:00:16;;;;;;;14.00;10.57;;;;;;;6.40;84.42;95454.38;4998905;28;20208;-84
2021/11/22 06:02:42;;;;;;;12.70;10.00;;;;;;;6.32;85.16;95446.69;4997375;28;20266;-84
2021/11/22 06:05:10;;;;;;;15.03;11.67;;;;;;;6.32;85.52;95449.25;4993035;28;20199;-84
2021/11/22 06:07:38;;;;;;;15.07;10.57;;;;;;;6.29;86.07;95451.31;4997978;28;20234;-84
2021/11/22 06:10:06;;;;;;;14.57;11.73;;;;;;;6.34;85.58;95461.88;5000016;28;20207;-84
2021/11/22 06:12:32;;;;;;;14.33;11.00;;;;;;;6.41;85.04;95470.53;4998090;28;20222;-84
2021/11/22 06:14:58;;;;;;;14.00;10.73;;;;;;;6.19;88.48;95472.66;4998601;28;20243;-84
2021/11/22 06:17:25;;;;;;;14.50;11.07;;;;;;;6.17;87.33;95477.13;5003804;28;20231;-84
2021/11/22 06:19:52;;;;;;;17.47;10.80;;;;;;;6.24;87.34;95482.44;5010118;28;20338;-84
2021/11/22 06:22:20;;;;;;;13.77;10.17;;;;;;;6.36;86.22;95481.22;5015009;28;20285;-84
2021/11/22 06:24:46;;;;;;;13.90;10.60;;;;;;;6.42;85.66;95478.03;5022752;28;20207;-84
2021/11/22 06:27:14;;;;;;;14.53;10.27;;;;;;;6.40;85.57;95479.94;5021150;28;20231;-84
2021/11/22 06:29:41;;;;;;;15.80;12.17;;;;;;;6.41;85.68;95483.31;5021508;28;20202;-84
2021/11/22 06:32:10;;;;;;;17.50;11.70;;;;;;;6.39;86.92;95487.78;5023029;28;20199;-85
2021/11/22 06:34:37;;;;;;;19.97;12.83;;;;;;;6.37;93.38;95492.22;5021566;28;20211;-84
2021/11/22 06:37:04;;;;;;;17.00;11.53;;;;;;;6.43;89.64;95496.75;5021947;28;20728;-84
2021/11/22 06:39:32;;;;;;;19.20;14.40;;;;;;;6.43;88.51;95512.91;5021555;28;20207;-84
2021/11/22 06:41:58;;;;;;;39.43;29.83;;;;;;;6.47;86.81;95503.97;5021351;28;20295;-84
2021/11/22 06:44:25;;;;;;;33.87;25.17;;;;;;;6.55;85.38;95503.19;5021009;28;20606;-84
2021/11/22 06:46:51;;;;;;;18.97;14.40;;;;;;;6.50;85.15;95516.44;5006610;28;20430;-84
2021/11/22 06:49:19;;;;;;;18.17;13.03;;;;;;;6.46;85.20;95509.22;5000869;28;20196;-84
2021/11/22 06:51:45;;;;;;;15.23;12.20;;;;;;;6.47;84.93;95521.88;5000041;28;20246;-85
2021/11/22 06:54:12;;;;;;;16.00;11.63;;;;;;;6.45;85.09;95520.41;5000455;28;20227;-84
2021/11/22 06:56:40;;;;;;;15.53;11.47;;;;;;;6.43;84.81;95519.75;4999438;28;20219;-84
2021/11/22 06:59:06;;;;;;;16.93;12.57;;;;;;;6.47;84.86;95519.31;4999923;28;20243;-85
2021/11/22 07:01:33;;;;;;;17.07;12.27;;;;;;;6.52;84.78;95529.09;5000290;28;20215;-84
2021/11/22 07:03:59;;;;;;;16.20;12.50;;;;;;;6.57;84.45;95524.28;5000381;28;20227;-84
2021/11/22 07:06:26;;;;;;;15.77;12.33;;;;;;;6.47;83.69;95528.75;4999815;28;20213;-84
2021/11/22 07:08:52;;;;;;;16.43;12.20;;;;;;;6.43;84.27;95535.09;5000026;28;20223;-84
2021/11/22 07:11:19;;;;;;;16.50;11.97;;;;;;;6.46;84.45;95525.38;5000853;28;20204;-84
2021/11/22 07:13:47;;;;;;;17.10;11.50;;;;;;;6.51;84.37;95532.59;4999919;28;20211;-84
2021/11/22 07:16:16;;;;;;;15.33;11.37;;;;;;;6.54;84.16;95533.06;5000427;28;20204;-84
2021/11/22 07:18:42;;;;;;;16.07;11.67;;;;;;;6.59;83.71;95543.66;4998932;28;20234;-84
2021/11/22 07:21:09;;;;;;;14.30;11.23;;;;;;;6.63;83.57;95548.47;4997854;28;20238;-84
2021/11/22 07:23:36;;;;;;;15.70;11.60;;;;;;;6.66;83.46;95543.84;4997732;28;20603;-84
2021/11/22 07:26:03;;;;;;;17.13;12.73;;;;;;;6.68;83.44;95548.81;4997866;28;20207;-84
2021/11/22 07:28:29;;;;;;;15.33;11.33;;;;;;;6.67;83.54;95550.56;4997374;28;20227;-84
2021/11/22 07:30:58;;;;;;;17.57;12.37;;;;;;;6.70;83.41;95562.28;4997828;28;20203;-84
2021/11/22 07:33:35;;;;;;;225.53;163.60;;;;;;;6.65;83.75;95564.47;4997603;28;20741;-85
2021/11/22 07:36:13;;;;;;;49.17;35.47;;;;;;;6.67;83.79;95568.50;4996263;28;20230;-84
2021/11/22 07:38:39;;;;;;;28.83;21.63;;;;;;;6.69;83.50;95569.13;4996646;28;20243;-84
2021/11/22 07:41:06;;;;;;;21.77;15.87;;;;;;;6.70;83.74;95577.63;4997677;28;20231;-84
2021/11/22 07:43:32;;;;;;;17.60;13.20;;;;;;;6.57;83.73;95576.25;4996526;28;20231;-84
2021/11/22 07:46:06;;;;;;;19.13;12.90;;;;;;;6.48;84.57;95578.94;4995986;28;20560;-84
2021/11/22 07:48:40;;;;;;;17.60;12.63;;;;;;;6.49;85.01;95583.91;4996538;28;20235;-84
2021/11/22 07:51:08;;;;;;;17.70;12.57;;;;;;;6.45;85.28;95584.34;4993524;28;20339;-84
2021/11/22 07:53:38;;;;;;;17.40;12.73;;;;;;;6.53;85.04;95586.97;4996657;28;20206;-84
2021/11/22 07:56:05;;;;;;;18.20;12.63;;;;;;;6.59;84.62;95596.56;4997198;28;20266;-84
2021/11/22 07:58:31;;;;;;;18.07;12.93;;;;;;;6.62;84.32;95596.28;4997250;28;20231;-84
2021/11/22 08:00:58;;;;;;;17.17;12.50;;;;;;;6.66;84.23;95595.03;4998546;28;20199;-84
2021/11/22 08:03:27;;;;;;;17.83;12.73;;;;;;;6.70;84.08;95592.97;4998171;28;20231;-84
2021/11/22 08:05:57;;;;;;;17.50;13.10;;;;;;;6.59;84.05;95592.25;4996152;28;20294;-84
2021/11/22 08:08:29;;;;;;;18.63;12.63;;;;;;;6.62;84.48;95595.47;4996918;28;20220;-84
2021/11/22 08:11:05;;;;;;;17.63;12.67;;;;;;;6.65;83.80;95602.84;4997099;28;20606;-84
2021/11/22 08:13:33;;;;;;;18.00;12.23;;;;;;;6.69;83.97;95599.03;4997454;28;20203;-84
2021/11/22 08:16:01;;;;;;;18.27;12.97;;;;;;;6.71;83.81;95600.50;4996190;28;20203;-84
2021/11/22 08:18:29;;;;;;;16.97;12.60;;;;;;;6.77;83.54;95611.84;4995871;28;20219;-84
2021/11/22 08:20:56;;;;;;;16.80;12.63;;;;;;;6.77;83.86;95607.53;4996389;28;20617;-84
2021/11/22 08:23:22;;;;;;;18.33;12.47;;;;;;;6.65;83.96;95610.53;4995531;28;20235;-83
2021/11/22 08:25:49;;;;;;;16.23;13.00;;;;;;;6.55;84.73;95615.72;4985524;28;20797;-83
2021/11/22 08:28:16;;;;;;;15.40;12.40;;;;;;;6.59;84.15;95617.84;4987166;28;20254;-83
2021/11/22 08:30:43;;;;;;;16.43;12.70;;;;;;;6.64;83.96;95617.41;4993368;28;20192;-83
2021/11/22 08:33:10;;;;;;;17.20;12.70;;;;;;;6.67;84.16;95627.31;4997687;28;20206;-83
2021/11/22 08:35:38;;;;;;;18.23;13.10;;;;;;;6.67;83.75;95631.63;4996185;28;20230;-83
2021/11/22 08:38:04;;;;;;;67.63;50.70;;;;;;;6.64;84.18;95635.28;4995507;28;20290;-83
2021/11/22 08:40:34;;;;;;;36.13;27.47;;;;;;;6.66;85.22;95635.97;4997656;28;20203;-82
2021/11/22 08:43:01;;;;;;;26.30;19.37;;;;;;;6.70;84.65;95642.38;4995885;28;20242;-83
2021/11/22 08:45:28;;;;;;;18.23;13.57;;;;;;;6.57;85.32;95647.06;4995051;28;20192;-83
2021/11/22 08:47:55;;;;;;;17.47;13.13;;;;;;;6.55;85.40;95654.91;4996845;28;20586;-83
2021/11/22 08:50:23;;;;;;;15.83;12.33;;;;;;;6.62;85.36;95660.22;4996306;28;20234;-83
2021/11/22 08:52:51;;;;;;;16.77;12.77;;;;;;;6.61;85.44;95657.81;4996631;28;20227;-83
2021/11/22 08:55:18;;;;;;;16.13;12.23;;;;;;;6.67;84.80;95670.81;5010442;28;20199;-83
2021/11/22 08:57:45;;;;;;;16.20;12.37;;;;;;;6.67;83.88;95668.25;5006527;28;20633;-83
2021/11/22 09:00:14;;;;;;;16.17;11.40;;;;;;;6.61;83.06;95680.84;5000689;28;20211;-83
2021/11/22 09:02:41;;;;;;;14.97;11.03;;;;;;;6.69;83.17;95679.16;4998127;28;20195;-83
2021/11/22 09:05:08;;;;;;;12.43;9.83;;;;;;;6.74;82.93;95684.59;4999088;28;20230;-83
2021/11/22 09:07:34;;;;;;;14.03;10.63;;;;;;;6.75;82.23;95683.66;5001113;28;20609;-83
2021/11/22 09:10:02;;;;;;;10.93;9.17;;;;;;;6.79;81.49;95700.31;4998482;28;20214;-83
2021/11/22 09:12:28;;;;;;;12.33;8.80;;;;;;;6.78;81.00;95697.91;4998185;28;20207;-83
2021/11/22 09:14:55;;;;;;;9.67;8.37;;;;;;;6.78;81.20;95695.34;4998957;28;20204;-83
2021/11/22 09:17:21;;;;;;;11.67;9.37;;;;;;;6.79;80.46;95699.50;5000231;28;20226;-83
2021/11/22 09:19:48;;;;;;;13.37;9.67;;;;;;;6.58;80.97;95700.66;4999096;28;20203;-83
2021/11/22 09:22:14;;;;;;;11.67;9.07;;;;;;;6.48;81.12;95694.81;4997609;28;20297;-83
2021/11/22 09:24:42;;;;;;;10.90;9.07;;;;;;;6.55;81.87;95695.81;4998768;28;20227;-83
2021/11/22 09:27:10;;;;;;;10.93;8.63;;;;;;;6.53;82.90;95697.75;4998503;28;20206;-83
2021/11/22 09:29:37;;;;;;;11.67;9.37;;;;;;;6.48;84.08;95699.94;4999041;28;20203;-83
2021/11/22 09:32:04;;;;;;;11.40;9.63;;;;;;;6.44;83.33;95706.31;4999652;28;20207;-83
2021/11/22 09:34:30;;;;;;;12.30;10.07;;;;;;;6.38;84.40;95700.97;4997683;28;20200;-83
2021/11/22 09:36:57;;;;;;;12.63;9.40;;;;;;;6.33;84.99;95701.44;4997479;28;20834;-83
2021/11/22 09:39:24;;;;;;;11.73;9.40;;;;;;;6.35;84.19;95703.84;4997618;28;20206;-83
2021/11/22 09:41:51;;;;;;;11.83;9.57;;;;;;;6.31;83.54;95712.75;4996578;28;20242;-83
2021/11/22 09:44:21;;;;;;;12.40;9.87;;;;;;;6.37;84.97;95712.94;4997055;28;20223;-83
2021/11/22 09:46:47;;;;;;;11.67;8.70;;;;;;;6.52;83.57;95719.16;4996967;28;20203;-83
2021/11/22 09:49:14;;;;;;;11.53;9.30;;;;;;;6.65;82.88;95715.41;4997243;28;20224;-83
2021/11/22 09:51:41;;;;;;;11.97;9.30;;;;;;;6.59;81.77;95721.91;4998154;28;20203;-83
2021/11/22 09:54:08;;;;;;;11.67;9.47;;;;;;;6.45;82.30;95725.00;4996936;28;20210;-83
2021/11/22 09:56:35;;;;;;;10.93;8.80;;;;;;;6.53;82.69;95725.88;4996682;28;20641;-83
2021/11/22 09:59:01;;;;;;;40.97;30.30;;;;;;;6.67;82.38;95728.84;4996842;28;20242;-83
2021/11/22 10:01:34;;;;;;;29.20;22.00;;;;;;;6.74;82.30;95722.97;4998785;28;20211;-83
2021/11/22 10:04:03;;;;;;;15.47;12.10;;;;;;;6.82;81.86;95719.69;4999827;28;20220;-82
2021/11/22 10:06:45;;;;;;;11.17;9.47;;;;;;;6.90;81.58;95730.00;5001602;28;20515;-83
2021/11/22 10:09:36;;;;;;;11.83;9.17;;;;;;;6.89;81.81;95726.63;5002946;28;20231;-83
2021/11/22 10:12:05;;;;;;;13.50;9.37;;;;;;;6.92;81.38;95717.84;5004625;28;20218;-83
2021/11/22 10:14:36;;;;;;;11.00;9.00;;;;;;;7.00;81.60;95717.88;4999711;28;20203;-82
2021/11/22 10:17:19;;;;;;;12.43;9.00;;;;;;;7.06;81.61;95716.47;4999810;28;20211;-83
2021/11/22 10:19:45;;;;;;;9.57;7.97;;;;;;;7.09;83.69;95716.19;4998043;28;20200;-83
2021/11/22 10:22:17;;;;;;;11.10;8.53;;;;;;;7.11;82.15;95709.16;5007751;28;20365;-83
2021/11/22 10:24:43;;;;;;;12.37;9.03;;;;;;;7.17;81.41;95709.34;5018163;28;20624;-83
2021/11/22 10:27:10;;;;;;;10.80;8.90;;;;;;;7.20;80.83;95709.03;5018851;28;20734;-83
2021/11/22 10:29:36;;;;;;;10.97;9.20;;;;;;;7.24;81.01;95710.34;5003612;28;20211;-82
2021/11/22 10:32:06;;;;;;;12.37;9.77;;;;;;;7.26;80.99;95715.31;5002461;28;20238;-83
2021/11/22 10:34:34;;;;;;;11.13;8.83;;;;;;;7.17;81.65;95714.44;5001957;28;20219;-82
2021/11/22 10:37:03;;;;;;;13.03;9.13;;;;;;;7.16;81.58;95707.72;5000553;28;20207;-82
2021/11/22 10:39:29;;;;;;;12.30;9.80;;;;;;;7.17;81.58;95716.22;5003588;28;20199;-83
2021/11/22 10:41:57;;;;;;;11.23;9.30;;;;;;;7.18;81.71;95713.50;5005711;28;20214;-83
2021/11/22 10:44:29;;;;;;;12.17;10.00;;;;;;;7.09;81.80;95724.66;5022796;28;20226;-83
2021/11/22 10:46:58;;;;;;;14.07;10.37;;;;;;;7.14;81.68;95719.06;5021381;28;20217;-83
2021/11/22 10:49:32;;;;;;;15.73;10.40;;;;;;;7.11;82.29;95717.63;5019328;28;20272;-83
2021/11/22 10:52:09;;;;;;;13.73;10.50;;;;;;;7.16;82.67;95717.97;5011943;28;20203;-82
2021/11/22 10:54:36;;;;;;;39.70;31.73;;;;;;;7.20;82.76;95724.41;5022243;28;20542;-82
2021/11/22 10:57:12;;;;;;;26.27;19.60;;;;;;;7.11;83.66;95727.06;5013561;28;20219;-82
2021/11/22 10:59:38;;;;;;;20.57;16.07;;;;;;;7.17;82.91;95729.81;5003281;28;20203;-82
2021/11/22 11:02:08;;;;;;;14.27;11.17;;;;;;;7.21;82.60;95725.19;5001792;28;20207;-83
2021/11/22 11:04:43;;;;;;;14.17;10.30;;;;;;;7.25;81.59;95726.50;5000940;28;20585;-83
2021/11/22 11:07:10;;;;;;;13.57;9.90;;;;;;;7.25;81.84;95729.06;4999663;28;20199;-83
2021/11/22 11:09:39;;;;;;;13.27;8.97;;;;;;;7.25;81.88;95727.31;5001067;28;20215;-82
2021/11/22 11:12:10;;;;;;;11.67;8.77;;;;;;;7.25;82.04;95722.19;5000736;28;20701;-83
2021/11/22 11:14:40;;;;;;;13.17;9.70;;;;;;;7.27;82.43;95729.72;5000934;28;20858;-83
2021/11/22 11:17:16;;;;;;;14.43;9.90;;;;;;;7.31;83.05;95730.22;5001321;28;20203;-83
2021/11/22 11:19:44;;;;;;;14.07;9.83;;;;;;;7.26;83.79;95736.59;4999333;28;20203;-83
2021/11/22 11:22:11;;;;;;;13.67;9.77;;;;;;;7.24;83.39;95732.59;4999471;28;20235;-83
2021/11/22 11:24:37;;;;;;;15.23;9.73;;;;;;;7.27;82.66;95735.66;4999752;28;20223;-83
2021/11/22 11:27:04;;;;;;;12.20;9.20;;;;;;;7.28;83.06;95742.38;5003400;28;20212;-83
2021/11/22 11:29:31;;;;;;;12.60;9.67;;;;;;;7.26;83.13;95739.16;5012441;28;20215;-83
2021/11/22 11:31:58;;;;;;;14.10;9.57;;;;;;;7.19;82.41;95745.03;5003451;28;20635;-83